• Join FlightAware (Why Join?)
  • Login
  • US Flag 
08:59PM EDT


 

Airport Tracker/Info


-or-


 

Live Flight TrackerFlight Track Log ✈ UAL4093 ✈ 13-Apr-2013 ✈ KIAH - KPIT

Flight Track Log - Related Links

Times and Time Zones

All times are in EDT time to prevent confusion due to time zone crossing. See the UAL4093 flight status page for this flight to view local times or setup timezone preferences in your user account.

Time Position Orientation Groundspeed Altitude Reporting Facility
EDT Latitude Longitude Course Direction KTS MPH feet Rate Location/Type
06:22PM 29.9567 -95.3344 90° East 173 199 800  Level Houston Center
06:23PM 29.9508 -95.2700 96° East 242 278 2,600 1,440 Climbing Houston Center
06:24PM 29.9517 -95.2350 88° East 231 266 3,200 1,260 Climbing Houston Center
06:24PM 29.9519 -95.1928 90° East 253 291 3,900 1,920 Climbing Houston Center
06:25PM 29.9834 -94.8937 90° East  Level FlightAware Approximate
06:25PM 29.9561 -95.1411 85° East 242 278 5,200  Level Houston Center
06:25PM 29.9581 -95.1222 83° East 244 281 6,000 2,220 Climbing Houston Center
06:26PM 29.9834 -94.7472 90° East  Level FlightAware Approximate
06:26PM 29.9603 -95.0619 88° East 247 284 7,500  Level Houston Center
06:27PM 29.9833 -94.6006 90° East  Level FlightAware Approximate
06:27PM 29.9664 -94.9692 86° East 285 328 9,700  Level Houston Center
06:28PM 29.9834 -94.4541 90° East  Level FlightAware Approximate
06:28PM 29.9711 -94.8667 87° East 314 361 11,000  Level Houston Center
06:29PM 29.9783 -94.7494 86° East 358 412 12,200 1,260 Climbing Houston Center
06:30PM 29.9853 -94.6258 86° East 382 440 13,700 1,440 Climbing Houston Center
06:31PM 29.9892 -94.5006 88° East 390 449 15,200 1,440 Climbing Houston Center
06:32PM 29.9942 -94.3653 88° East 398 458 16,700 1,500 Climbing Houston Center
06:33PM 30.0047 -94.2375 85° East 402 463 18,300 1,500 Climbing Houston Center
06:34PM 30.0214 -94.1075 82° East 410 472 19,800 1,560 Climbing Houston Center
06:35PM 30.0406 -93.9500 82° East 415 478 21,600 1,500 Climbing Houston Center
06:36PM 30.0567 -93.8172 82° East 420 483 23,000 1,380 Climbing Houston Center
06:37PM 30.0731 -93.6828 82° East 428 493 24,500 1,440 Climbing Houston Center
06:38PM 30.0881 -93.5483 83° East 429 494 26,000 1,380 Climbing Houston Center
06:39PM 30.1042 -93.4136 82° East 432 497 27,400 1,380 Climbing Houston Center
06:40PM 30.1197 -93.2811 82° East 424 488 28,900 1,260 Climbing Houston Center
06:41PM 30.1389 -93.1192 82° East 428 493 30,100 1,020 Climbing Houston Center
06:42PM 30.1644 -92.9814 78° East 440 506 31,100 960 Climbing Houston Center
06:43PM 30.1925 -92.8428 77° East 445 512 32,100 960 Climbing Houston Center
06:44PM 30.2197 -92.7003 77° East 454 522 33,100 900 Climbing Houston Center
06:45PM 30.2472 -92.5558 78° East 461 531 34,000 840 Climbing Houston Center
06:46PM 30.2758 -92.4117 77° East 462 532 34,900 480 Climbing Houston Center
06:47PM 30.3064 -92.2489 78° East 473 544 35,000  Climbing Houston Center
06:49PM 30.3358 -92.0925 78° East 492 566 35,000  Level Houston Center
06:50PM 30.3667 -91.9297 78° East 513 590 35,000  Level Houston Center
06:51PM 30.3986 -91.7617 78° East 529 609 35,000  Level Houston Center
06:52PM 30.4353 -91.5717 77° East 538 619 35,000  Level Houston Center
06:53PM 30.4664 -91.4000 78° East 543 625 35,000  Level Houston Center
06:54PM 30.5256 -91.2419 66° East 535 616 35,000  Level Houston Center
06:55PM 30.6292 -91.1158 46° Northeast 535 616 35,000  Level Houston Center
06:56PM 30.7278 -90.9897 48° Northeast 530 610 35,000  Level Houston Center
06:57PM 30.8286 -90.8636 47° Northeast 530 610 35,000  Level Houston Center
06:58PM 30.9494 -90.7111 47° Northeast 530 610 35,000  Level Houston Center
06:59PM 31.0481 -90.5842 48° Northeast 528 608 35,000  Level Houston Center
07:00PM 31.1481 -90.4586 47° Northeast 527 606 35,000  Level Houston Center
07:01PM 31.2467 -90.3336 47° Northeast 524 603 35,000  Level Houston Center
07:02PM 31.3439 -90.2072 48° Northeast 522 601 35,000  Level Houston Center
07:03PM 31.4403 -90.0769 49° Northeast 525 604 35,000  Level Houston Center
07:04PM 31.5367 -89.9483 49° Northeast 525 604 35,000  Level Houston Center
07:05PM 31.6331 -89.8200 49° Northeast 524 603 35,000  Level Houston Center
07:05PM 31.6892 -89.7447 49° Northeast 519 597 35,000  Level Memphis Center
07:06PM 31.7844 -89.6194 48° Northeast 519 597 35,000  Level Memphis Center
07:07PM 31.8331 -89.5500 51° Northeast 521 600 35,000  Level Houston Center
07:07PM 31.8797 -89.4889 48° Northeast 519 597 35,000  Level Memphis Center
07:08PM 31.9728 -89.3583 50° Northeast 519 597 35,000  Level Memphis Center
07:09PM 32.0697 -89.2297 48° Northeast 519 597 35,000  Level Memphis Center
07:10PM 32.1644 -89.1008 49° Northeast 519 597 35,000  Level Memphis Center
07:11PM 32.2592 -88.9669 50° Northeast 519 597 35,000  Level Memphis Center
07:12PM 32.3658 -88.8225 49° Northeast 519 597 35,000  Level Memphis Center
07:13PM 32.4583 -88.6906 50° Northeast 519 597 35,000  Level Memphis Center
07:14PM 32.5525 -88.5556 50° Northeast 525 604 35,000  Level Memphis Center
07:16PM 32.7092 -88.3342 50° Northeast 524 603 35,000  Level Atlanta Center
07:17PM 32.7953 -88.1975 53° Northeast 534 615 35,000  Level Atlanta Center
07:18PM 32.8897 -88.0586 51° Northeast 534 615 35,000  Level Atlanta Center
07:19PM 32.9925 -87.9097 51° Northeast 534 615 35,000  Level Atlanta Center
07:20PM 33.0778 -87.7847 51° Northeast 534 615 35,000  Level Atlanta Center
07:21PM 33.1717 -87.6447 51° Northeast 534 615 35,000  Level Atlanta Center
07:22PM 33.2656 -87.5044 51° Northeast 534 615 35,000  Level Atlanta Center
07:23PM 33.3592 -87.3639 51° Northeast 534 615 35,000  Level Atlanta Center
07:24PM 33.4525 -87.2233 51° Northeast 534 615 35,000  Level Atlanta Center
07:25PM 33.5458 -87.0819 52° Northeast 540 621 35,000  Level Atlanta Center
07:26PM 33.6411 -86.9433 50° Northeast 540 621 35,000  Level Atlanta Center
07:27PM 33.7381 -86.8067 50° Northeast 540 621 35,000  Level Atlanta Center
07:28PM 33.8411 -86.6750 47° Northeast 540 621 35,000  Level Atlanta Center
07:29PM 33.9442 -86.5428 47° Northeast 535 616 35,000  Level Atlanta Center
07:30PM 34.0578 -86.3933 47° Northeast 540 621 35,000  Level Atlanta Center
07:31PM 34.1583 -86.2606 48° Northeast 535 616 35,000  Level Atlanta Center
07:32PM 34.2608 -86.1300 46° Northeast 535 616 35,000  Level Atlanta Center
07:33PM 34.3631 -85.9942 48° Northeast 535 616 35,000  Level Atlanta Center
07:34PM 34.4633 -85.8628 47° Northeast 530 610 35,000  Level Atlanta Center
07:35PM 34.5611 -85.7289 48° Northeast 530 610 35,000  Level Atlanta Center
07:36PM 34.6631 -85.5944 47° Northeast 530 610 35,000  Level Atlanta Center
07:37PM 34.7628 -85.4647 47° Northeast 530 610 35,000  Level Atlanta Center
07:38PM 34.8603 -85.3322 48° Northeast 530 610 35,000  Level Atlanta Center
07:39PM 34.9617 -85.1969 48° Northeast 530 610 35,000  Level Atlanta Center
07:40PM 35.0567 -85.0664 48° Northeast 530 610 35,000  Level Atlanta Center
07:41PM 35.1517 -84.9356 48° Northeast 530 610 35,000  Level Atlanta Center
07:42PM 35.2506 -84.8017 48° Northeast 530 610 35,000  Level Atlanta Center
07:43PM 35.3475 -84.6703 48° Northeast 530 610 35,000  Level Atlanta Center
07:44PM 35.4419 -84.5383 49° Northeast 525 604 35,000  Level Atlanta Center
07:45PM 35.5300 -84.4164 48° Northeast 525 604 35,000  Level Atlanta Center
07:46PM 35.6261 -84.2867 48° Northeast 525 604 35,000  Level Atlanta Center
07:47PM 35.7225 -84.1514 49° Northeast 520 598 35,000  Level Atlanta Center
07:48PM 35.8183 -84.0158 49° Northeast 520 598 35,000  Level Atlanta Center
07:49PM 35.9247 -83.8875 44° Northeast 520 598 35,000  Level Atlanta Center
07:51PM 36.1775 -83.7219 28° Northeast 512 589 35,000  Level Indianapolis Center
07:52PM 36.3064 -83.6406 27° Northeast 520 598 35,000  Level Indianapolis Center
07:53PM 36.4328 -83.5589 27° Northeast 514 592 35,000  Level Indianapolis Center
07:54PM 36.5622 -83.4778 27° Northeast 524 603 35,000  Level Indianapolis Center
07:55PM 36.6919 -83.3939 27° Northeast 543 625 35,000  Level Indianapolis Center
07:56PM 36.8203 -83.3125 27° Northeast 521 600 35,000  Level Indianapolis Center
07:57PM 36.9500 -83.2281 27° Northeast 519 597 35,000  Level Indianapolis Center
07:58PM 37.0811 -83.1436 27° Northeast 520 598 35,000  Level Indianapolis Center
07:59PM 37.2103 -83.0592 27° Northeast 517 595 35,000  Level Indianapolis Center
08:00PM 37.3394 -82.9744 28° Northeast 517 595 35,000  Level Indianapolis Center
08:01PM 37.4697 -82.8900 27° Northeast 522 601 35,000  Level Indianapolis Center
08:02PM 37.5989 -82.8022 28° Northeast 525 604 35,000  Level Indianapolis Center
08:03PM 37.7275 -82.7153 28° Northeast 522 601 35,000  Level Indianapolis Center
08:04PM 37.8567 -82.6317 27° Northeast 521 600 35,000  Level Indianapolis Center
08:05PM 37.9817 -82.5478 28° Northeast 509 586 35,000  Level Indianapolis Center
08:06PM 38.1186 -82.4564 28° Northeast 494 568 35,000  Level Indianapolis Center
08:07PM 38.2392 -82.3733 28° Northeast 491 565 35,000 -420 Level Indianapolis Center
08:08PM 38.3633 -82.2889 28° Northeast 502 578 34,200 -900 Descending Indianapolis Center
08:09PM 38.4889 -82.2072 27° Northeast 504 580 33,200 -1,080 Descending Indianapolis Center
08:10PM 38.6136 -82.1225 28° Northeast 501 577 32,100 -1,080 Descending Indianapolis Center
08:11PM 38.7358 -82.0378 28° Northeast 496 571 31,100 -1,020 Descending Indianapolis Center
08:12PM 38.8533 -81.9331 35° Northeast 506 582 30,100 -1,080 Descending Indianapolis Center
08:13PM 38.9678 -81.8250 36° Northeast 505 581 29,000 -1,080 Descending Indianapolis Center
08:14PM 39.0808 -81.7178 36° Northeast 500 575 28,000 -1,020 Descending Indianapolis Center
08:15PM 39.1917 -81.6139 36° Northeast 489 563 27,000 -1,320 Descending Indianapolis Center
08:16PM 39.2997 -81.5092 37° Northeast 484 557 25,400 -2,340 Descending Indianapolis Center
08:17PM 39.4050 -81.4094 36° Northeast 470 541 22,300 -2,220 Descending Indianapolis Center
08:18PM 39.5086 -81.3094 37° Northeast 464 534 21,000 -660 Descending Indianapolis Center
08:19PM 39.6128 -81.2103 36° Northeast 463 533 21,000  Level Indianapolis Center
08:21PM 39.7167 -81.1078 37° Northeast 466 536 21,000 -1,320 Level Indianapolis Center
08:21PM 39.8267 -81.0019 36° Northeast 460 529 18,400 -5,580 Descending Cleveland Center
08:22PM 39.9208 -80.9106 37° Northeast 444 511 10,000 -2,940 Descending Cleveland Center
08:23PM 40.0106 -80.8244 36° Northeast 413 475 12,600 60 Climbing Cleveland Center
08:24PM 40.0881 -80.7297 43° Northeast 393 452 10,200 -1,320 Descending Cleveland Center
08:25PM 40.1608 -80.6347 45° Northeast 374 430 10,000 -120 Descending Cleveland Center
08:26PM 40.2153 -80.5206 58° Northeast 364 419 10,000  Level Cleveland Center
08:27PM 40.2692 -80.4061 58° Northeast 364 419 10,000  Level Cleveland Center
08:28PM 40.3211 -80.2917 59° Northeast 364 419 10,000 -480 Level Cleveland Center
08:29PM 40.3686 -80.1881 59° Northeast 350 403 9,100 -1,800 Descending Cleveland Center
08:30PM 40.4100 -80.0978 59° Northeast 318 366 6,500 -2,400 Descending Cleveland Center
08:31PM 40.4139 -80.0078 87° East 282 325 4,300 -1,200 Descending Cleveland Center
08:32PM 40.4700 -79.9992 North 224 258 4,100 -240 Descending Cleveland Center